Costa Fortuna — IBNY — position and weather

sailwx.info

Track history (hours):
 
Tides and Currents Weather Stations Pressure Air Temp Water Temp Dewpoint Dewpoint Depression Visibility Wind Speed Wind Dir Waves Ship Positions

Costa Fortuna

Last reported at 2017-Feb-20 13:23 UTC. Time now 2017-Feb-22 04:23 UTC.
Position N 31°06' E 122°36'.

Length 272 m; draft 8.3 m.

Type: Ship. MMSI: 247094800.

Date/timePositionNaut miles runAvg speedWind from/ knotsBaromVisibWave heightAir tempDewpointWater temp
2017-Feb-20 13:23N 31°06' E 122°36'1214.2
2017-Feb-20 12:33N 31°06' E 122°22'1413.8
2017-Feb-20 11:33N 31°12' E 122°08'1413.8
2017-Feb-20 10:34N 31°16' E 121°52'1413.8
2017-Feb-20 09:34N 31°22' E 121°38'7 7.0
2017-Feb-20 08:33N 31°25' E 121°30'0 0.0
2017-Feb-20 07:33N 31°25' E 121°30'0 0.0
2017-Feb-20 06:33N 31°25' E 121°30'0 0.0
2017-Feb-20 05:30N 31°25' E 121°30'0 0.0
2017-Feb-20 04:30N 31°25' E 121°30'0 0.0
2017-Feb-20 03:30N 31°25' E 121°30'0 0.0
2017-Feb-20 02:33N 31°25' E 121°30'0 0.0
2017-Feb-20 01:33N 31°25' E 121°30'0 0.0
2017-Feb-20 00:30N 31°25' E 121°30'0 0.0
2017-Feb-19 23:33N 31°25' E 121°30'2 2.0
2017-Feb-19 22:33N 31°24' E 121°33'1111.1
2017-Feb-19 21:34N 31°19' E 121°44'1414.3
2017-Feb-19 20:33N 31°15' E 121°60'1313.2
2017-Feb-19 19:33N 31°09' E 122°14'1010.5
2017-Feb-19 18:33N 31°07' E 122°26'1616.5
2017-Feb-19 17:33N 31°21' E 122°36'  
2017-Feb-16 16:23N 31°16' E 123°18'2614.3
2017-Feb-16 14:33N 31°08' E 122°49'1513.5
2017-Feb-16 13:26N 31°06' E 122°31'9 9.8
2017-Feb-16 12:34N 31°06' E 122°21'1313.1
2017-Feb-16 11:33N 31°12' E 122°08'1312.9
2017-Feb-16 10:33N 31°16' E 121°53'1313.3
2017-Feb-16 09:33N 31°21' E 121°39'8 8.3
2017-Feb-16 08:33N 31°25' E 121°30'0 0.0
2017-Feb-16 07:30N 31°25' E 121°30'0 0.0
2017-Feb-16 06:33N 31°25' E 121°30'0 0.0
2017-Feb-16 05:33N 31°25' E 121°30'0 0.0
2017-Feb-16 04:27N 31°25' E 121°30'0 0.0
2017-Feb-16 03:33N 31°25' E 121°30'0 0.0
2017-Feb-16 02:33N 31°25' E 121°30'0 0.0
2017-Feb-16 01:33N 31°25' E 121°30'0 0.0
2017-Feb-16 00:33N 31°25' E 121°30'0 0.0
2017-Feb-15 23:33N 31°25' E 121°30'0 0.0
2017-Feb-15 22:33N 31°25' E 121°30'0 0.0
2017-Feb-15 21:33N 31°25' E 121°30'0 0.0
2017-Feb-15 20:33N 31°25' E 121°30'3 3.0
2017-Feb-15 19:33N 31°24' E 121°34'1111.0
2017-Feb-15 18:33N 31°19' E 121°45'1111.1
2017-Feb-15 17:33N 31°15' E 121°57'1010.1
2017-Feb-15 16:33N 31°12' E 122°08'1110.9
2017-Feb-15 15:33N 31°06' E 122°19'1110.7
2017-Feb-15 14:33N 31°10' E 122°31'1212.1
2017-Feb-15 13:33N 31°22' E 122°36'  
2017-Feb-12 13:05N 31°06' E 122°25'611.5
2017-Feb-12 12:33N 31°06' E 122°18'1414.3
2017-Feb-12 11:33N 31°14' E 122°05'1515.0
2017-Feb-12 10:33N 31°18' E 121°48'1313.2
2017-Feb-12 09:33N 31°24' E 121°34'3 3.0
2017-Feb-12 08:32N 31°25' E 121°30'0 0.0
2017-Feb-12 07:32N 31°25' E 121°30'0 0.0
2017-Feb-12 06:32N 31°25' E 121°30'0 0.0
2017-Feb-12 05:32N 31°25' E 121°30'0 0.0
2017-Feb-12 04:29N 31°25' E 121°30'0 0.0
2017-Feb-12 03:29N 31°25' E 121°30'0 0.0
2017-Feb-12 02:32N 31°25' E 121°30'0 0.0
2017-Feb-12 01:32N 31°25' E 121°30'0 0.0
2017-Feb-12 00:32N 31°25' E 121°30'0 0.0
2017-Feb-11 23:32N 31°25' E 121°30'0 0.0
2017-Feb-11 22:34N 31°25' E 121°30'0 0.0
2017-Feb-11 21:33N 31°25' E 121°30'6 6.2
2017-Feb-11 20:34N 31°22' E 121°37'1010.2
2017-Feb-11 19:33N 31°18' E 121°48'1111.2
2017-Feb-11 18:33N 31°15' E 122°00'1413.5
2017-Feb-11 17:34N 31°09' E 122°14'1111.3
2017-Feb-11 16:33N 31°06' E 122°27'10 9.5
2017-Feb-11 15:33N 31°15' E 122°31'  
Track history (hours):
 
Tides and Currents Weather Stations Pressure Air Temp Water Temp Dewpoint Dewpoint Depression Visibility Wind Speed Wind Dir Waves Ship Positions

Costa Fortuna

Last reported at 2017-Feb-20 13:23 UTC. Time now 2017-Feb-22 04:23 UTC.
Position N 31°06' E 122°36'.

Length 272 m; draft 8.3 m.

Type: Ship. MMSI: 247094800.

Date/timePositionNaut miles runAvg speedWind from/ knotsBaromVisibWave heightAir tempDewpointWater temp
2017-Feb-20 13:23N 31°06' E 122°36'1214.2
2017-Feb-20 12:33N 31°06' E 122°22'1413.8
2017-Feb-20 11:33N 31°12' E 122°08'1413.8
2017-Feb-20 10:34N 31°16' E 121°52'1413.8
2017-Feb-20 09:34N 31°22' E 121°38'7 7.0
2017-Feb-20 08:33N 31°25' E 121°30'0 0.0
2017-Feb-20 07:33N 31°25' E 121°30'0 0.0
2017-Feb-20 06:33N 31°25' E 121°30'0 0.0
2017-Feb-20 05:30N 31°25' E 121°30'0 0.0
2017-Feb-20 04:30N 31°25' E 121°30'0 0.0
2017-Feb-20 03:30N 31°25' E 121°30'0 0.0
2017-Feb-20 02:33N 31°25' E 121°30'0 0.0
2017-Feb-20 01:33N 31°25' E 121°30'0 0.0
2017-Feb-20 00:30N 31°25' E 121°30'0 0.0
2017-Feb-19 23:33N 31°25' E 121°30'2 2.0
2017-Feb-19 22:33N 31°24' E 121°33'1111.1
2017-Feb-19 21:34N 31°19' E 121°44'1414.3
2017-Feb-19 20:33N 31°15' E 121°60'1313.2
2017-Feb-19 19:33N 31°09' E 122°14'1010.5
2017-Feb-19 18:33N 31°07' E 122°26'1616.5
2017-Feb-19 17:33N 31°21' E 122°36'  
2017-Feb-16 16:23N 31°16' E 123°18'2614.3
2017-Feb-16 14:33N 31°08' E 122°49'1513.5
2017-Feb-16 13:26N 31°06' E 122°31'9 9.8
2017-Feb-16 12:34N 31°06' E 122°21'1313.1
2017-Feb-16 11:33N 31°12' E 122°08'1312.9
2017-Feb-16 10:33N 31°16' E 121°53'1313.3
2017-Feb-16 09:33N 31°21' E 121°39'8 8.3
2017-Feb-16 08:33N 31°25' E 121°30'0 0.0
2017-Feb-16 07:30N 31°25' E 121°30'0 0.0
2017-Feb-16 06:33N 31°25' E 121°30'0 0.0
2017-Feb-16 05:33N 31°25' E 121°30'0 0.0
2017-Feb-16 04:27N 31°25' E 121°30'0 0.0
2017-Feb-16 03:33N 31°25' E 121°30'0 0.0
2017-Feb-16 02:33N 31°25' E 121°30'0 0.0
2017-Feb-16 01:33N 31°25' E 121°30'0 0.0
2017-Feb-16 00:33N 31°25' E 121°30'0 0.0
2017-Feb-15 23:33N 31°25' E 121°30'0 0.0
2017-Feb-15 22:33N 31°25' E 121°30'0 0.0
2017-Feb-15 21:33N 31°25' E 121°30'0 0.0
2017-Feb-15 20:33N 31°25' E 121°30'3 3.0
2017-Feb-15 19:33N 31°24' E 121°34'1111.0
2017-Feb-15 18:33N 31°19' E 121°45'1111.1
2017-Feb-15 17:33N 31°15' E 121°57'1010.1
2017-Feb-15 16:33N 31°12' E 122°08'1110.9
2017-Feb-15 15:33N 31°06' E 122°19'1110.7
2017-Feb-15 14:33N 31°10' E 122°31'1212.1
2017-Feb-15 13:33N 31°22' E 122°36'  
2017-Feb-12 13:05N 31°06' E 122°25'611.5
2017-Feb-12 12:33N 31°06' E 122°18'1414.3
2017-Feb-12 11:33N 31°14' E 122°05'1515.0
2017-Feb-12 10:33N 31°18' E 121°48'1313.2
2017-Feb-12 09:33N 31°24' E 121°34'3 3.0
2017-Feb-12 08:32N 31°25' E 121°30'0 0.0
2017-Feb-12 07:32N 31°25' E 121°30'0 0.0
2017-Feb-12 06:32N 31°25' E 121°30'0 0.0
2017-Feb-12 05:32N 31°25' E 121°30'0 0.0
2017-Feb-12 04:29N 31°25' E 121°30'0 0.0
2017-Feb-12 03:29N 31°25' E 121°30'0 0.0
2017-Feb-12 02:32N 31°25' E 121°30'0 0.0
2017-Feb-12 01:32N 31°25' E 121°30'0 0.0
2017-Feb-12 00:32N 31°25' E 121°30'0 0.0
2017-Feb-11 23:32N 31°25' E 121°30'0 0.0
2017-Feb-11 22:34N 31°25' E 121°30'0 0.0
2017-Feb-11 21:33N 31°25' E 121°30'6 6.2
2017-Feb-11 20:34N 31°22' E 121°37'1010.2
2017-Feb-11 19:33N 31°18' E 121°48'1111.2
2017-Feb-11 18:33N 31°15' E 122°00'1413.5
2017-Feb-11 17:34N 31°09' E 122°14'1111.3
2017-Feb-11 16:33N 31°06' E 122°27'10 9.5
2017-Feb-11 15:33N 31°15' E 122°31'  

Dump ship's entire track history